Doddington, United Kingdom
Current Conditions -  °F | °C
As of 12:23 PM on Friday 28 Nov 2014 (Local Time) from EGUN Reporting Station
Overcast Overcast  
Wind Chill: 52°   Ceiling: 1000
Heat Index: 52°   Visibility: 6mi
Dew Point: 50°   Wind: 13mph
Humidity: 94%   Direction: 90°E
Pressure: 29.65"   Gusts: NA
Location:  52.5°N, 0.06°E
Report Text: EGUN 281223Z AUTO 09011KT 9999 OVC010 11/10 A2965 RMK AO2
Loading
Personal Weather Stations






























Interactive Weather Map New forecast layout! Learn more

10-Day Weather Forecast

Advertisements
Track Severe Weather on mobile